Malvern, Ohio
Current Conditions -  °F | °C
As of 6:53 PM on Wednesday 26 Nov 2014 (Local Time) from KPHD Reporting Station
Overcast Overcast  
Wind Chill: 34°   Ceiling: 3400
Heat Index: 38°   Visibility: 10mi
Dew Point: 28°   Wind: 5mph
Humidity: 68%   Direction: 340°NNW
Pressure: 30.03"   Gusts: NA
Location:  40.69°N, 81.18°W
Report Text: KPHD 262353Z AUTO 34004KT 10SM OVC034 03/M02 A3003 RMK AO2 SLP177 T00331022 10044 20033 51005
Loading
Personal Weather Stations






























Interactive Weather Map New forecast layout! Learn more

10-Day Weather Forecast

Advertisements
Track Severe Weather on mobile